createdAt,value
2018-02-02T00:02:20.574Z,5.23
2018-02-02T00:04:51.666Z,6.77
2018-02-02T00:07:22.690Z,6.17
2018-02-02T00:09:53.795Z,6.33
2018-02-02T00:12:24.871Z,5.80
2018-02-02T00:14:55.973Z,5.93
2018-02-02T00:17:27.089Z,6.70
2018-02-02T00:20:00.993Z,5.63
2018-02-02T00:22:32.565Z,6.03
2018-02-02T00:25:03.645Z,5.70
2018-02-02T00:27:34.763Z,6.40
2018-02-02T00:30:05.827Z,6.77
2018-02-02T00:32:36.948Z,6.63
2018-02-02T00:35:08.040Z,6.27
2018-02-02T00:37:39.167Z,7.40
2018-02-02T00:40:10.212Z,5.80
2018-02-02T00:42:41.342Z,5.33
2018-02-02T00:45:12.432Z,6.20
2018-02-02T00:47:43.693Z,5.90
2018-02-02T00:50:14.833Z,5.80
2018-02-02T00:52:45.949Z,5.80
2018-02-02T00:55:17.006Z,5.77
2018-02-02T00:57:48.108Z,5.67
2018-02-02T01:00:19.202Z,5.90
2018-02-02T01:02:50.344Z,5.77
2018-02-02T01:05:21.394Z,5.27
2018-02-02T01:07:52.483Z,6.40
2018-02-02T01:10:23.574Z,5.50
2018-02-02T01:12:54.694Z,5.63
2018-02-02T01:15:25.715Z,6.40
2018-02-02T01:17:56.860Z,5.87
2018-02-02T01:20:27.962Z,6.10
2018-02-02T01:22:59.045Z,6.10
2018-02-02T01:25:30.110Z,5.97
2018-02-02T01:28:01.199Z,5.77
2018-02-02T01:30:32.242Z,6.00
2018-02-02T01:33:03.326Z,5.97
2018-02-02T01:35:34.395Z,5.57
2018-02-02T01:38:05.521Z,6.73
2018-02-02T01:40:36.571Z,6.13
2018-02-02T01:43:07.679Z,5.60
2018-02-02T01:45:38.744Z,5.90
2018-02-02T01:48:19.844Z,5.80
2018-02-02T01:50:50.919Z,6.07
2018-02-02T01:53:22.080Z,5.90
2018-02-02T01:55:53.110Z,5.63
2018-02-02T01:58:24.271Z,5.67
2018-02-02T02:00:55.334Z,5.97
2018-02-02T02:03:26.466Z,6.03
2018-02-02T02:05:57.522Z,6.57
2018-02-02T02:08:28.647Z,6.40
2018-02-02T02:10:59.700Z,6.20
2018-02-02T02:13:30.793Z,5.67
2018-02-02T02:16:01.895Z,6.40
2018-02-02T02:18:32.976Z,5.83
2018-02-02T02:21:04.068Z,5.53
2018-02-02T02:23:35.127Z,5.90
2018-02-02T02:26:06.247Z,5.60
2018-02-02T02:28:37.330Z,6.20
2018-02-02T02:31:08.438Z,6.10
2018-02-02T02:33:39.540Z,6.80
2018-02-02T02:36:10.600Z,7.23
2018-02-02T02:38:41.747Z,6.17
2018-02-02T02:41:12.757Z,7.30
2018-02-02T02:43:43.886Z,7.00
2018-02-02T02:46:14.985Z,6.78
2018-02-02T02:48:46.142Z,6.67
2018-02-02T02:51:17.232Z,7.10
2018-02-02T02:53:48.329Z,6.97
2018-02-02T02:56:19.416Z,7.68
2018-02-02T02:58:50.527Z,7.23
2018-02-02T03:01:21.584Z,7.23
2018-02-02T03:03:53.254Z,8.20
2018-02-02T03:06:24.339Z,7.37
2018-02-02T03:08:55.422Z,8.18
2018-02-02T03:11:26.485Z,7.82
2018-02-02T03:13:57.607Z,7.53
2018-02-02T03:16:28.657Z,8.65
2018-02-02T03:18:59.793Z,7.80
2018-02-02T03:21:30.963Z,8.07
2018-02-02T03:24:02.112Z,8.10
2018-02-02T03:26:33.218Z,9.03
2018-02-02T03:29:04.294Z,8.47
2018-02-02T03:31:35.401Z,8.93
2018-02-02T03:34:06.442Z,8.93
2018-02-02T03:36:37.571Z,9.27
2018-02-02T03:39:08.683Z,9.55
2018-02-02T03:41:39.757Z,9.65
2018-02-02T03:44:10.838Z,10.50
2018-02-02T03:46:41.923Z,9.23
2018-02-02T03:49:13.049Z,11.25
2018-02-02T03:51:44.101Z,10.85
2018-02-02T03:54:15.231Z,10.43
2018-02-02T03:56:46.293Z,11.35
2018-02-02T03:59:17.391Z,11.95
2018-02-02T04:01:48.422Z,11.18
2018-02-02T04:04:19.508Z,12.10
2018-02-02T04:06:50.591Z,12.02
2018-02-02T04:09:21.665Z,12.70
2018-02-02T04:11:52.699Z,13.05
2018-02-02T04:14:23.834Z,12.45
2018-02-02T04:16:54.916Z,12.18
2018-02-02T04:19:26.039Z,11.88
2018-02-02T04:21:58.474Z,13.15
2018-02-02T04:24:29.624Z,10.75
2018-02-02T04:27:00.719Z,12.10
2018-02-02T04:29:31.826Z,10.98
2018-02-02T04:32:02.914Z,11.15
2018-02-02T04:34:34.023Z,10.90
2018-02-02T04:37:05.136Z,11.50
2018-02-02T04:39:36.258Z,11.00
2018-02-02T04:42:07.365Z,10.88
2018-02-02T04:44:38.474Z,10.57
2018-02-02T04:47:09.562Z,10.27
2018-02-02T04:49:40.639Z,10.65
2018-02-02T04:52:11.722Z,12.13
2018-02-02T04:54:42.820Z,11.18
2018-02-02T04:57:13.924Z,11.60
2018-02-02T04:59:45.015Z,11.07
2018-02-02T05:02:16.148Z,10.73
2018-02-02T05:04:47.330Z,11.88
2018-02-02T05:07:18.421Z,11.88
2018-02-02T05:09:49.491Z,11.12
2018-02-02T05:12:20.575Z,9.98
2018-02-02T05:14:51.646Z,10.75
2018-02-02T05:17:22.689Z,10.02
2018-02-02T05:19:53.811Z,9.07
2018-02-02T05:22:24.890Z,8.63
2018-02-02T05:24:56.017Z,8.77
2018-02-02T05:27:27.083Z,9.82
2018-02-02T05:29:58.256Z,7.90
2018-02-02T05:32:29.370Z,7.93
2018-02-02T05:35:00.457Z,8.88
2018-02-02T05:37:31.515Z,8.73
2018-02-02T05:40:02.624Z,8.35
2018-02-02T05:42:33.696Z,8.25
2018-02-02T05:45:04.800Z,8.30
2018-02-02T05:47:35.889Z,8.88
2018-02-02T05:50:06.990Z,9.23
2018-02-02T05:52:38.812Z,9.82
2018-02-02T05:55:09.913Z,9.25
2018-02-02T05:57:40.988Z,10.00
2018-02-02T06:00:12.044Z,9.95
2018-02-02T06:02:43.119Z,10.35
2018-02-02T06:05:14.194Z,10.70
2018-02-02T06:07:45.250Z,11.38
2018-02-02T06:10:16.361Z,11.57
2018-02-02T06:12:47.402Z,11.38
2018-02-02T06:15:18.477Z,11.07
2018-02-02T06:17:49.554Z,11.38
2018-02-02T06:20:20.658Z,10.68
2018-02-02T06:22:51.750Z,10.38
2018-02-02T06:25:22.836Z,10.55
2018-02-02T06:27:53.908Z,11.07
2018-02-02T06:30:25.158Z,11.43
2018-02-02T06:32:56.225Z,11.73
2018-02-02T06:35:27.315Z,11.10
2018-02-02T06:37:58.390Z,12.43
2018-02-02T06:40:29.476Z,11.05
2018-02-02T06:43:00.546Z,12.07
2018-02-02T06:45:31.622Z,11.00
2018-02-02T06:48:02.707Z,11.52
2018-02-02T06:50:33.741Z,10.07
2018-02-02T06:53:04.839Z,10.48
2018-02-02T06:55:35.902Z,9.48
2018-02-02T06:58:07.007Z,8.60
2018-02-02T07:00:38.151Z,8.68
2018-02-02T07:03:09.209Z,7.60
2018-02-02T07:05:40.319Z,7.97
2018-02-02T07:08:11.390Z,6.70
2018-02-02T07:10:42.701Z,6.68
2018-02-02T07:13:13.753Z,6.70
2018-02-02T07:15:44.816Z,5.87
2018-02-02T07:18:15.894Z,5.45
2018-02-02T07:20:46.969Z,6.70
2018-02-02T07:23:18.038Z,4.70
2018-02-02T07:25:49.085Z,4.57
2018-02-02T07:28:20.190Z,4.90
2018-02-02T07:30:51.201Z,4.80
2018-02-02T07:33:22.278Z,4.20
2018-02-02T07:35:53.338Z,4.17
2018-02-02T07:38:24.430Z,3.90
2018-02-02T07:40:55.472Z,3.90
2018-02-02T07:43:26.549Z,4.13
2018-02-02T07:45:57.609Z,4.30
2018-02-02T07:48:28.654Z,3.80
2018-02-02T07:50:59.728Z,3.73
2018-02-02T07:53:30.846Z,4.10
2018-02-02T07:56:01.893Z,5.97
2018-02-02T07:58:32.929Z,3.93
2018-02-02T08:01:10.198Z,3.73
2018-02-02T08:03:41.246Z,3.83
2018-02-02T08:06:12.348Z,3.77
2018-02-02T08:08:43.459Z,3.37
2018-02-02T08:11:14.539Z,4.77
2018-02-02T08:13:45.624Z,4.00
2018-02-02T08:16:16.723Z,3.30
2018-02-02T08:18:47.837Z,4.00
2018-02-02T08:21:18.884Z,4.00
2018-02-02T08:23:49.971Z,3.73
2018-02-02T08:26:21.034Z,3.83
2018-02-02T08:28:52.122Z,3.93
2018-02-02T08:31:23.202Z,4.00
2018-02-02T08:33:54.278Z,4.40
2018-02-02T08:36:25.334Z,3.83
2018-02-02T08:38:56.391Z,4.30
2018-02-02T08:41:27.470Z,3.63
2018-02-02T08:43:58.515Z,3.43
2018-02-02T08:46:29.627Z,4.03
2018-02-02T08:49:00.684Z,3.57
2018-02-02T08:51:31.775Z,3.93
2018-02-02T08:54:02.815Z,3.47
2018-02-02T08:56:33.921Z,4.37
2018-02-02T08:59:04.950Z,4.40
2018-02-02T09:01:42.188Z,3.73
2018-02-02T09:04:13.247Z,3.67
2018-02-02T09:06:44.285Z,4.40
2018-02-02T09:09:15.387Z,4.20
2018-02-02T09:11:46.477Z,4.17
2018-02-02T09:14:17.558Z,4.03
2018-02-02T09:16:48.653Z,3.57
2018-02-02T09:19:19.710Z,3.57
2018-02-02T09:21:52.515Z,3.50
2018-02-02T09:24:23.598Z,4.67
2018-02-02T09:26:54.616Z,3.80
2018-02-02T09:29:26.688Z,3.40
2018-02-02T09:31:57.733Z,4.37
2018-02-02T09:34:28.847Z,4.00
2018-02-02T09:36:59.911Z,3.70
2018-02-02T09:39:31.251Z,3.20
2018-02-02T09:42:02.334Z,3.47
2018-02-02T09:44:33.439Z,4.20
2018-02-02T09:47:04.515Z,3.60
2018-02-02T09:49:35.590Z,3.23
2018-02-02T09:52:06.712Z,3.00
2018-02-02T09:54:37.762Z,3.57
2018-02-02T09:57:08.872Z,5.27
2018-02-02T09:59:39.930Z,3.97
2018-02-02T10:02:11.018Z,3.80
2018-02-02T10:04:42.146Z,4.03
2018-02-02T10:07:13.272Z,4.20
2018-02-02T10:09:44.361Z,5.23
2018-02-02T10:12:15.425Z,4.60
2018-02-02T10:14:46.514Z,4.70
2018-02-02T10:17:17.574Z,3.73
2018-02-02T10:19:48.707Z,4.10
2018-02-02T10:22:19.741Z,3.10
2018-02-02T10:24:50.793Z,3.27
2018-02-02T10:27:21.849Z,3.97
2018-02-02T10:29:52.878Z,3.70
2018-02-02T10:32:23.940Z,4.30
2018-02-02T10:34:55.014Z,4.00
2018-02-02T10:37:26.257Z,3.10
2018-02-02T10:39:57.330Z,3.77
2018-02-02T10:42:28.402Z,3.00
2018-02-02T10:44:59.719Z,3.50
2018-02-02T10:47:30.772Z,3.30
2018-02-02T10:50:01.880Z,3.53
2018-02-02T10:52:32.960Z,3.70
2018-02-02T10:55:04.059Z,3.03
2018-02-02T10:57:35.094Z,3.80
2018-02-02T11:00:06.191Z,4.13
2018-02-02T11:02:43.388Z,3.97
2018-02-02T11:05:14.508Z,4.33
2018-02-02T11:07:45.564Z,3.70
2018-02-02T11:10:16.600Z,3.40
2018-02-02T11:12:47.720Z,4.10
2018-02-02T11:15:18.784Z,4.40
2018-02-02T11:17:49.868Z,3.67
2018-02-02T11:20:20.949Z,3.97
2018-02-02T11:22:52.264Z,3.80
2018-02-02T11:25:23.885Z,4.87
2018-02-02T11:27:55.054Z,4.20
2018-02-02T11:30:26.107Z,4.23
2018-02-02T11:32:57.174Z,4.30
2018-02-02T11:35:28.276Z,4.10
2018-02-02T11:37:59.307Z,4.40
2018-02-02T11:40:30.438Z,3.73
2018-02-02T11:43:01.534Z,4.33
2018-02-02T11:45:32.609Z,3.17
2018-02-02T11:48:03.753Z,4.23
2018-02-02T11:50:34.828Z,4.70
2018-02-02T11:53:05.914Z,3.93
2018-02-02T11:55:37.018Z,3.87
2018-02-02T11:58:08.131Z,3.63
2018-02-02T12:00:39.205Z,3.50
2018-02-02T12:03:10.369Z,3.57
2018-02-02T12:05:41.438Z,3.17
2018-02-02T12:08:12.533Z,3.70
2018-02-02T12:10:43.616Z,4.20
2018-02-02T12:13:14.703Z,3.40
2018-02-02T12:15:45.822Z,3.30
2018-02-02T12:18:16.918Z,3.13
2018-02-02T12:20:48.068Z,3.90
2018-02-02T12:23:24.080Z,3.93
2018-02-02T12:29:13.641Z,4.10
2018-02-02T12:31:54.693Z,4.03
2018-02-02T12:34:39.628Z,3.07
2018-02-02T12:37:10.746Z,3.63
2018-02-02T12:39:41.944Z,3.07
2018-02-02T12:42:12.999Z,2.63
2018-02-02T12:44:44.078Z,2.80
2018-02-02T12:47:15.179Z,2.73
2018-02-02T12:49:58.619Z,2.20
2018-02-02T12:52:29.716Z,2.17
2018-02-02T12:55:00.811Z,2.17
2018-02-02T12:57:31.887Z,2.83
2018-02-02T13:00:03.022Z,2.70
2018-02-02T13:02:34.120Z,2.17
2018-02-02T13:05:05.212Z,2.07
2018-02-02T13:07:36.260Z,1.60
2018-02-02T13:10:07.377Z,1.67
2018-02-02T13:12:38.420Z,2.30
2018-02-02T13:15:09.495Z,2.30
2018-02-02T13:17:40.614Z,2.00
2018-02-02T13:20:11.667Z,1.90
2018-02-02T13:22:42.930Z,2.00
2018-02-02T13:25:13.994Z,2.23
2018-02-02T13:27:45.078Z,2.37
2018-02-02T13:30:16.136Z,2.20
2018-02-02T13:32:47.249Z,1.90
2018-02-02T13:35:18.356Z,1.93
2018-02-02T13:37:49.444Z,1.93
2018-02-02T13:40:20.574Z,2.13
2018-02-02T13:42:51.680Z,1.90
2018-02-02T13:45:22.814Z,2.47
2018-02-02T13:47:53.901Z,1.80
2018-02-02T13:50:24.981Z,2.03
2018-02-02T13:52:56.043Z,2.57
2018-02-02T13:55:27.156Z,2.23
2018-02-02T13:57:58.287Z,3.43
2018-02-02T14:00:29.436Z,2.47
2018-02-02T14:03:00.516Z,1.80
2018-02-02T14:05:31.633Z,2.20
2018-02-02T14:08:02.694Z,2.60
2018-02-02T14:10:33.771Z,2.03
2018-02-02T14:13:04.837Z,1.90
2018-02-02T14:15:35.990Z,1.60
2018-02-02T14:18:07.082Z,2.00
2018-02-02T14:20:38.194Z,1.73
2018-02-02T14:23:09.306Z,1.83
2018-02-02T14:25:40.392Z,1.57
2018-02-02T14:28:11.453Z,2.13
2018-02-02T14:30:43.057Z,1.90
2018-02-02T14:33:14.195Z,2.00
2018-02-02T14:35:45.259Z,2.20
2018-02-02T14:38:16.396Z,2.10
2018-02-02T14:40:47.442Z,2.43
2018-02-02T14:43:18.533Z,2.13
2018-02-02T14:45:49.610Z,2.23
2018-02-02T14:48:20.718Z,2.13
2018-02-02T14:50:51.786Z,1.53
2018-02-02T14:53:22.871Z,3.70
2018-02-02T14:55:53.892Z,1.90
2018-02-02T14:58:24.977Z,1.63
2018-02-02T15:00:56.800Z,3.13
2018-02-02T15:03:27.874Z,3.37
2018-02-02T15:05:58.968Z,1.70
2018-02-02T15:08:30.066Z,1.67
2018-02-02T15:11:01.177Z,2.37
2018-02-02T15:13:32.254Z,2.60
2018-02-02T15:16:03.290Z,2.40
2018-02-02T15:18:34.361Z,2.10
2018-02-02T15:21:05.445Z,2.10
2018-02-02T15:23:36.550Z,2.10
2018-02-02T15:26:07.659Z,2.37
2018-02-02T15:28:38.727Z,1.90
2018-02-02T15:31:09.816Z,2.03
2018-02-02T15:33:40.878Z,1.90
2018-02-02T15:36:11.967Z,1.90
2018-02-02T15:38:43.084Z,1.80
2018-02-02T15:41:14.145Z,1.83
2018-02-02T15:43:45.218Z,2.07
2018-02-02T15:46:16.297Z,2.10
2018-02-02T15:48:47.387Z,1.93
2018-02-02T15:51:18.472Z,2.50
2018-02-02T15:53:49.530Z,2.53
2018-02-02T15:56:20.619Z,2.30
2018-02-02T15:58:51.718Z,1.97
2018-02-02T16:01:22.793Z,1.63
2018-02-02T16:03:53.894Z,2.10
2018-02-02T16:06:24.978Z,4.47
2018-02-02T16:08:56.080Z,2.20
2018-02-02T16:11:27.177Z,3.23
2018-02-02T16:13:58.254Z,2.53
2018-02-02T16:16:29.408Z,1.80
2018-02-02T16:19:00.501Z,2.60
2018-02-02T16:21:31.539Z,2.00
2018-02-02T16:24:02.598Z,2.97
2018-02-02T16:26:33.704Z,2.00
2018-02-02T16:29:04.790Z,2.13
2018-02-02T16:31:35.872Z,2.17
2018-02-02T16:34:06.939Z,1.77
2018-02-02T16:36:38.019Z,3.50
2018-02-02T16:39:09.128Z,2.03
2018-02-02T16:41:40.241Z,2.30
2018-02-02T16:44:11.337Z,2.10
2018-02-02T16:46:42.414Z,2.37
2018-02-02T16:49:13.523Z,2.10
2018-02-02T16:51:44.574Z,2.30
2018-02-02T16:54:15.697Z,2.10
2018-02-02T16:56:46.812Z,2.93
2018-02-02T16:59:17.890Z,2.00
2018-02-02T17:01:49.128Z,2.33
2018-02-02T17:04:20.204Z,2.33
2018-02-02T17:06:51.344Z,2.87
2018-02-02T17:09:22.432Z,2.87
2018-02-02T17:11:53.565Z,2.17
2018-02-02T17:14:24.625Z,2.10
2018-02-02T17:16:55.714Z,2.17
2018-02-02T17:19:26.797Z,2.67
2018-02-02T17:21:57.891Z,3.80
2018-02-02T17:24:28.975Z,3.30
2018-02-02T17:27:00.084Z,2.57
2018-02-02T17:29:31.150Z,2.13
2018-02-02T17:32:02.253Z,2.67
2018-02-02T17:34:33.343Z,2.90
2018-02-02T17:37:04.357Z,2.70
2018-02-02T17:39:35.467Z,2.33
2018-02-02T17:42:06.560Z,2.03
2018-02-02T17:44:37.640Z,2.20
2018-02-02T17:47:08.741Z,2.00
2018-02-02T17:49:39.799Z,2.67
2018-02-02T17:52:11.919Z,3.10
2018-02-02T17:54:42.976Z,3.03
2018-02-02T17:57:14.042Z,2.70
2018-02-02T17:59:45.106Z,2.60
2018-02-02T18:05:26.283Z,2.77
2018-02-02T18:07:57.366Z,3.30
2018-02-02T18:10:28.394Z,3.50
2018-02-02T18:12:59.459Z,3.27
2018-02-02T18:15:30.566Z,3.17
2018-02-02T18:18:01.617Z,2.97
2018-02-02T18:20:32.677Z,2.63
2018-02-02T18:23:03.788Z,3.00
2018-02-02T18:25:34.925Z,3.33
2018-02-02T18:28:05.959Z,3.07
2018-02-02T18:30:37.058Z,2.90
2018-02-02T18:33:08.162Z,3.77
2018-02-02T18:35:39.240Z,4.30
2018-02-02T18:38:10.484Z,3.80
2018-02-02T18:40:41.562Z,2.93
2018-02-02T18:43:12.616Z,3.00
2018-02-02T18:45:43.715Z,3.67
2018-02-02T18:48:14.969Z,4.00
2018-02-02T18:50:46.130Z,3.53
2018-02-02T18:53:17.222Z,3.27
2018-02-02T18:55:48.351Z,3.10
2018-02-02T18:58:19.422Z,3.40
2018-02-02T19:00:50.467Z,4.33
2018-02-02T19:03:21.510Z,3.50
2018-02-02T19:05:52.663Z,3.10
2018-02-02T19:08:23.731Z,5.27
2018-02-02T19:10:54.835Z,3.20
2018-02-02T19:13:25.893Z,3.40
2018-02-02T19:15:56.943Z,3.10
2018-02-02T19:18:28.028Z,4.20
2018-02-02T19:20:59.084Z,3.23
2018-02-02T19:23:30.137Z,3.43
2018-02-02T19:26:01.178Z,3.37
2018-02-02T19:28:32.272Z,3.70
2018-02-02T19:31:03.343Z,4.20
2018-02-02T19:33:34.678Z,3.80
2018-02-02T19:36:05.777Z,3.40
2018-02-02T19:38:36.881Z,4.07
2018-02-02T19:41:07.938Z,4.17
2018-02-02T19:43:38.991Z,4.07
2018-02-02T19:46:10.075Z,4.67
2018-02-02T19:48:41.153Z,4.20
2018-02-02T19:51:12.215Z,4.50
2018-02-02T19:53:43.304Z,4.53
2018-02-02T19:56:14.391Z,4.10
2018-02-02T19:58:45.479Z,4.03
2018-02-02T20:01:16.559Z,4.33
2018-02-02T20:03:47.830Z,4.03
2018-02-02T20:06:18.875Z,3.40
2018-02-02T20:08:49.949Z,3.57
2018-02-02T20:11:20.978Z,6.00
2018-02-02T20:13:52.209Z,6.43
2018-02-02T20:16:23.296Z,5.07
2018-02-02T20:18:54.437Z,5.13
2018-02-02T20:21:25.552Z,4.13
2018-02-02T20:23:56.745Z,3.53
2018-02-02T20:26:27.812Z,4.27
2018-02-02T20:28:58.860Z,3.37
2018-02-02T20:31:29.947Z,3.53
2018-02-02T20:34:01.048Z,3.33
2018-02-02T20:36:32.149Z,3.57
2018-02-02T20:39:03.234Z,3.80
2018-02-02T20:41:34.338Z,4.17
2018-02-02T20:44:05.424Z,3.87
2018-02-02T20:46:36.467Z,4.37
2018-02-02T20:49:07.544Z,5.37
2018-02-02T20:51:38.597Z,4.53
2018-02-02T20:54:09.666Z,4.40
2018-02-02T20:56:40.686Z,5.30
2018-02-02T20:59:11.767Z,5.17
2018-02-02T21:01:49.873Z,4.00
2018-02-02T21:04:20.922Z,4.53
2018-02-02T21:06:52.056Z,3.73
2018-02-02T21:09:23.140Z,4.87
2018-02-02T21:11:54.207Z,4.50
2018-02-02T21:14:25.278Z,4.70
2018-02-02T21:16:56.341Z,4.47
2018-02-02T21:19:27.429Z,4.67
2018-02-02T21:21:59.135Z,5.40
2018-02-02T21:24:30.270Z,5.30
2018-02-02T21:27:01.317Z,4.80
2018-02-02T21:29:32.403Z,4.10
2018-02-02T21:32:03.515Z,4.17
2018-02-02T21:34:34.554Z,5.03
2018-02-02T21:37:05.634Z,7.83
2018-02-02T21:39:36.710Z,8.87
2018-02-02T21:42:07.785Z,5.50
2018-02-02T21:44:38.891Z,5.30
2018-02-02T21:47:09.947Z,7.33
2018-02-02T21:49:41.003Z,4.50
2018-02-02T21:52:12.100Z,4.73
2018-02-02T21:54:43.149Z,4.40
2018-02-02T21:57:14.228Z,3.83
2018-02-02T21:59:46.045Z,5.10
2018-02-02T22:02:17.119Z,4.97
2018-02-02T22:04:48.175Z,4.30
2018-02-02T22:07:19.258Z,3.90
2018-02-02T22:09:50.355Z,5.03
2018-02-02T22:12:21.444Z,4.87
2018-02-02T22:14:52.504Z,5.53
2018-02-02T22:17:23.571Z,5.90
2018-02-02T22:19:54.663Z,4.57
2018-02-02T22:22:25.835Z,4.47
2018-02-02T22:24:57.047Z,4.77
2018-02-02T22:27:28.117Z,4.43
2018-02-02T22:29:59.297Z,4.77
2018-02-02T22:32:30.546Z,4.43
2018-02-02T22:35:01.644Z,5.17
2018-02-02T22:37:39.883Z,4.87
2018-02-02T22:40:10.947Z,9.97
2018-02-02T22:42:41.970Z,6.20
2018-02-02T22:45:13.050Z,19.83
2018-02-02T22:47:44.124Z,5.70
2018-02-02T22:50:15.193Z,7.23
2018-02-02T22:52:46.254Z,5.47
2018-02-02T22:55:17.313Z,6.53
2018-02-02T22:57:48.391Z,5.90
2018-02-02T23:00:19.526Z,5.63
2018-02-02T23:02:50.591Z,5.23
2018-02-02T23:05:21.666Z,5.13
2018-02-02T23:07:52.763Z,4.70
2018-02-02T23:10:23.829Z,5.60
2018-02-02T23:12:54.886Z,5.60
2018-02-02T23:15:25.916Z,5.07
2018-02-02T23:17:56.972Z,5.57
2018-02-02T23:20:27.996Z,6.23
2018-02-02T23:22:59.068Z,6.43
2018-02-02T23:25:30.126Z,5.90
2018-02-02T23:28:01.232Z,5.87
2018-02-02T23:30:32.282Z,5.23
2018-02-02T23:33:03.418Z,5.73
2018-02-02T23:35:34.532Z,5.33
2018-02-02T23:38:05.567Z,5.80
2018-02-02T23:40:36.622Z,5.57
2018-02-02T23:43:07.627Z,5.87
2018-02-02T23:45:38.669Z,5.20
2018-02-02T23:48:09.735Z,4.90
2018-02-02T23:50:40.764Z,5.20
2018-02-02T23:53:11.790Z,10.87
2018-02-02T23:55:42.855Z,9.93
2018-02-02T23:58:13.954Z,6.07
